Terminal Aerodrome Forecast
Issued by NWS

Home | Current Version | Previous Version | Text Only | Print | Product List | Glossary On
Versions: 1 2 3 4 5 6 7 8 9 10 11 12
000
FTUS44 KLIX 060551
TAFMSY
TAF
KMSY 060551Z 0606/0706 12006KT P6SM FEW080 SCT250
     FM061500 12012KT P6SM BKN035
     FM070000 13009KT P6SM SCT080=

USA.gov is the U.S. government's official web portal to all federal, state and local government web resources and services.